parkrun Report – Saturday 23rd September 2017

With autumn now firmly established, parkrun tourism is in temporary decline, with good attendances at the local venues.

David AWDE was the first finisher at Ashton Court in 17:02, with Henry SLY in third place in 17:36 and James PYKE seventh in 18:39, a PB by 59 seconds, earning him the Performance of the Week. Sarah EVERITT was the second female in 20:45 and Fleur COCKLEY was ninth in 23:37.

Michael CHANDLER was ninth and first SM30-34, with a time of 19:39, at Chipping Sodbury and Anna FORD was seventh female and first SW25-29 in 23:18.

At Pomphrey Hill, Peter WANG was sixth and first VM40-44 in 20:08. New Club member, Laura ORNA was the first female in 23:15, a PB by 51 seconds. Sabrina PATTEN was the first VW45-49 in 25:32; and Jolie HOFFMAN was the first JW11-14 in 27:45.

Outside the Bristol area, Michelle EDGELL ran at Plymvalley, Sheila WILCOX tackled Trelissick and Andrew and Marie MALLOY were at the Gnoll in Neath.

Position  Gender Position  parkrunner  Run Time  Comments
Ashton Court parkrun
1 1 David AWDE 00:17:02 1st overall. 1st SM30-34.
3 3 Henry SLY 00:17:36 1st VM35-39.
7 7 James PYKE 00:18:39 PB by 59 seconds.

1st SM18-19

17 17 Bill HULL 00:19:38 1st VM45-49.
22 22 Stuart O’CONNELL 00:20:01
24 24 Pete MOUNTAIN 00:20:25 1st VM60-64.
31 2 Sarah EVERITT 00:20:45 1st VW50-54.
82 9 Fleur COCKLEY 00:23:37 1st VW40-44.
84 75 Pete CLARK 00:23:41
108 98 Tom WATKINS 00:24:16
112 100 Greg CHANCE 00:24:21
113 101 Dan SCHOFIELD 00:24:22
133 14 Alice DOGGRELL 00:25:06
140 17 Jennifer OWSLEY 00:25:22
150 21 Christine BURREN 00:25:39 2nd VW50-54.
185 32 Helen CLARK 00:26:50
207 35 Tamera JONES 00:27:11 2nd VW45-49.
225 182 Tom WHITE 00:27:36
245 53 Kitty FREEMAN-EDMONDSON 00:28:16 2nd JM11-14.
250 55 Rebecca COLQUHOUN 00:28:22
303 218 Paul TAYLOR-MORRIS 00:30:03
341 101 Rachael PRYOR 00:31:41
388 261 David SALTER 00:34:26
420 148 Isabel BATES 00:38:16
421 149 Alison ENGLEDEW 00:38:16
446 167 Maggie SALTER 00:41:27
451 282 David ENGLEDEW 00:42:17
464 176 Liz HILL 00:46:12
467 178 Carole KLUTH 00:47:35
Volunteers
Isabel BATES
Cecelia BROWNE
Lesley EVANS
Gordon EVERITT
Rich KENINGTON
Carole KLUTH
Francesca KNAPPER
Mike WARREN
Plymvalley parkrun
137 32 Michelle EDGELL 00:33:13
Trelissick parkrun
73 24 Sheila WILCOX 00:33:18 2nd VW45-49.
Chippenham parkrun
13 13 Darren STRINGER 00:21:19
Kingsbury Water parkrun
175 142 Roger BROCKLESBY 00:28:40
Chipping Sodbury parkrun
9 9 Michael CHANDLER 00:19:39 1st SM30-34.
21 20 Bruce SELLERS 00:20:37
72 68 Richard BROWN 00:23:01
83 7 Anna FORD 00:23:18 1st SW25-29.
111 101 Robert COLMAN 00:25:05
115 11 Claire SHINE 00:25:12 2nd VW45-49.
127 116 Nick WHITE 00:25:47
215 54 Isobel MEDCROFT 00:29:27 1st SW18-19.
236 169 Graham CRUMP 00:30:16
304 194 Maciej BIALOGONSKI 00:33:45
Pomphrey Hill parkrun
6 6 Peter WANG 00:20:08 1st VM40-44.
22 22 Nick CREW 00:22:26
32 1 Laura ORNA 00:23:15 PB by 51 seconds .

1st female. 1st SW30-34.

34 33 Geoff PARTRIDGE 00:23:16
66 63 Bartosz WALENCIK 00:25:01
74 8 Sabrina PATTEN 00:25:32 1st VW45-49.
93 84 Hans-Peter KIEKUTH 00:26:13
104 13 Karen WATSON 00:26:28
118 100 Barry MILLS 00:27:09
122 103 Jonathan BENNETT 00:27:28
124 20 Jolie HOFFMAN 00:27:45 1st JW11-14.
137 25 Carol KIEKUTH 00:28:16
152 121 Dave HORNE 00:28:46
157 123 Ethan GILL 00:29:06
Burnham and Highbridge parkrun
34 6 Jane COLMAN 00:23:49 2nd VW45-49.
154 106 Brendon WILSON 00:29:52
Gnoll parkrun
31 29 Andrew MALLOY 00:25:51
32 3 Marie MALLOY 00:25:56 2nd SW30-34.

Comments are closed